Time;durP1;ratioP1;P1;durP2;ratioP2;P2;SDS_P1;SDS_P2;PMS_P1;PMS_P2;Temp;Humidity;BMP_temperature;BMP_pressure;BME280_temperature;BME280_humidity;BME280_pressure;Samples;Min_cycle;Max_cycle;Signal;HPM_P1;HPM_P2
2022/10/16 00:00:41;;;;;;;8.93;3.95;;;;;;;;;;4964477;28;20054;-71
2022/10/16 00:03:12;;;;;;;6.68;4.30;;;;;;;;;;5043236;28;20057;-71
2022/10/16 00:05:44;;;;;;;6.50;4.03;;;;;;;;;;5053017;28;20056;-71
2022/10/16 00:08:14;;;;;;;10.05;4.30;;;;;;;;;;5034916;28;20059;-72
2022/10/16 00:10:44;;;;;;;8.02;5.10;;;;;;;;;;5039704;28;20057;-69
2022/10/16 00:13:16;;;;;;;6.50;4.10;;;;;;;;;;5075312;28;20488;-71
2022/10/16 00:15:47;;;;;;;10.13;3.65;;;;;;;;;;5074839;28;20048;-69
2022/10/16 00:18:16;;;;;;;6.82;3.53;;;;;;;;;;5074855;28;20052;-71
2022/10/16 00:20:46;;;;;;;6.43;3.17;;;;;;;;;;5074729;28;20055;-71
2022/10/16 00:23:17;;;;;;;5.15;2.90;;;;;;;;;;5075060;28;20051;-72
2022/10/16 00:25:58;;;;;;;6.05;2.90;;;;;;;;;;5075018;28;20048;-72
2022/10/16 00:28:28;;;;;;;4.88;2.83;;;;;;;;;;5073700;28;20059;-72
2022/10/16 00:30:59;;;;;;;5.90;3.05;;;;;;;;;;5039514;28;20496;-71
2022/10/16 00:33:29;;;;;;;5.00;2.65;;;;;;;;;;5086890;28;20055;-71
2022/10/16 00:36:01;;;;;;;7.13;2.75;;;;;;;;;;5094829;28;20052;-72
2022/10/16 00:38:31;;;;;;;7.15;2.60;;;;;;;;;;5094749;28;20040;-72
2022/10/16 00:41:01;;;;;;;5.00;3.17;;;;;;;;;;5059579;28;20048;-72
2022/10/16 00:43:46;;;;;;;6.60;2.60;;;;;;;;;;5095003;28;20051;-72
2022/10/16 00:46:25;;;;;;;5.72;2.65;;;;;;;;;;5094799;28;20051;-72
2022/10/16 00:48:58;;;;;;;;;;;;;;;;;;5095217;28;20048;-72
2022/10/16 00:51:37;;;;;;;6.68;1.95;;;;;;;;;;5094609;28;20268;-71
2022/10/16 00:54:14;;;;;;;4.63;2.20;;;;;;;;;;5076802;28;20048;-71
2022/10/16 00:56:46;;;;;;;5.07;2.35;;;;;;;;;;5018470;28;20598;-71
2022/10/16 00:59:19;;;;;;;;;;;;;;;;;;5032465;28;20054;-69
2022/10/16 01:01:49;;;;;;;3.13;1.75;;;;;;;;;;5032038;28;19920;-73
2022/10/16 01:04:19;;;;;;;5.85;2.30;;;;;;;;;;4998894;28;20065;-71
2022/10/16 01:07:01;;;;;;;4.40;2.13;;;;;;;;;;5031731;28;20053;-71
2022/10/16 01:09:37;;;;;;;4.95;2.30;;;;;;;;;;4982900;28;20061;-71
2022/10/16 01:12:10;;;;;;;5.30;1.80;;;;;;;;;;5031783;28;20053;-72
2022/10/16 01:14:57;;;;;;;3.42;1.65;;;;;;;;;;4998700;28;20428;-71
2022/10/16 01:17:52;;;;;;;3.90;2.13;;;;;;;;;;4992072;28;20047;-71
2022/10/16 01:20:30;;;;;;;4.72;2.03;;;;;;;;;;4975665;28;20573;-72
2022/10/16 01:23:18;;;;;;;;;;;;;;;;;;4945049;28;20053;-71
2022/10/16 01:26:18;;;;;;;3.65;1.80;;;;;;;;;;4975889;28;20424;-71
2022/10/16 01:29:01;;;;;;;3.80;1.80;;;;;;;;;;4992319;28;20058;-71
2022/10/16 01:31:35;;;;;;;2.38;1.17;;;;;;;;;;4992017;28;20446;-69
2022/10/16 01:34:21;;;;;;;4.38;1.60;;;;;;;;;;4966437;28;20520;-73
2022/10/16 01:37:16;;;;;;;3.30;1.40;;;;;;;;;;4991842;28;20053;-71
2022/10/16 01:39:50;;;;;;;3.35;2.13;;;;;;;;;;5051262;28;20524;-69
2022/10/16 01:42:27;;;;;;;3.67;1.80;;;;;;;;;;5001311;28;20052;-71
2022/10/16 01:45:00;;;;;;;4.80;2.13;;;;;;;;;;5017983;28;20048;-72
2022/10/16 01:47:31;;;;;;;4.72;1.55;;;;;;;;;;5051008;28;20432;-72
2022/10/16 01:50:04;;;;;;;6.68;2.90;;;;;;;;;;5050976;28;20037;-71
2022/10/16 01:52:38;;;;;;;2.60;1.80;;;;;;;;;;5050113;28;20093;-71
2022/10/16 01:55:11;;;;;;;4.03;1.95;;;;;;;;;;5072848;28;20067;-71
2022/10/16 01:57:46;;;;;;;4.00;1.75;;;;;;;;;;5050715;28;20057;-72
2022/10/16 02:00:19;;;;;;;2.58;1.58;;;;;;;;;;5034276;28;20068;-72
2022/10/16 02:02:49;;;;;;;;;;;;;;;;;;5051076;28;20694;-71
2022/10/16 02:05:24;;;;;;;3.65;1.80;;;;;;;;;;5050549;28;19921;-72
2022/10/16 02:07:55;;;;;;;3.30;1.75;;;;;;;;;;5050351;28;20057;-71
2022/10/16 02:10:30;;;;;;;3.65;1.08;;;;;;;;;;5050438;28;20449;-71
2022/10/16 02:13:06;;;;;;;;;;;;;;;;;;5030610;28;20049;-70
2022/10/16 02:15:37;;;;;;;3.08;1.45;;;;;;;;;;4981293;28;19928;-71
2022/10/16 02:18:08;;;;;;;2.63;1.40;;;;;;;;;;5030097;28;20549;-71
2022/10/16 02:21:05;;;;;;;4.35;1.42;;;;;;;;;;4971291;28;20407;-71
2022/10/16 02:23:54;;;;;;;3.20;1.67;;;;;;;;;;4971539;28;20059;-70
2022/10/16 02:27:14;;;;;;;4.80;1.95;;;;;;;;;;4955085;28;20065;-71
2022/10/16 02:29:50;;;;;;;4.70;1.30;;;;;;;;;;4857794;29;20091;-71
2022/10/16 02:32:23;;;;;;;7.15;1.95;;;;;;;;;;4872984;29;20054;-71
2022/10/16 02:34:54;;;;;;;4.75;1.48;;;;;;;;;;4878801;29;20560;-72
2022/10/16 02:37:26;;;;;;;4.75;1.88;;;;;;;;;;4876529;29;20083;-71
2022/10/16 02:39:58;;;;;;;4.13;1.60;;;;;;;;;;4876383;29;20057;-71
2022/10/16 02:42:36;;;;;;;6.70;2.40;;;;;;;;;;4876141;29;20053;-70
2022/10/16 02:45:08;;;;;;;5.38;1.80;;;;;;;;;;4876641;29;20072;-71
2022/10/16 02:47:38;;;;;;;6.70;2.00;;;;;;;;;;4876153;29;20060;-71
2022/10/16 02:50:09;;;;;;;4.05;1.40;;;;;;;;;;4876332;29;20461;-71
2022/10/16 02:52:40;;;;;;;4.30;1.70;;;;;;;;;;4860437;29;20502;-70
2022/10/16 02:55:10;;;;;;;5.00;1.50;;;;;;;;;;4881329;29;20409;-71
2022/10/16 02:57:40;;;;;;;6.35;1.90;;;;;;;;;;4902319;29;20074;-71
2022/10/16 03:00:14;;;;;;;4.65;1.60;;;;;;;;;;4932532;29;20052;-71
2022/10/16 03:02:44;;;;;;;3.75;2.17;;;;;;;;;;4915740;29;20059;-71
2022/10/16 03:05:15;;;;;;;7.70;2.03;;;;;;;;;;4932589;28;20062;-70
2022/10/16 03:07:45;;;;;;;4.10;2.28;;;;;;;;;;5084394;28;20063;-71
2022/10/16 03:10:15;;;;;;;7.25;1.88;;;;;;;;;;5073306;28;20052;-71
2022/10/16 03:12:45;;;;;;;3.40;1.95;;;;;;;;;;5056290;28;20044;-70
2022/10/16 03:15:15;;;;;;;4.32;1.77;;;;;;;;;;5056363;28;20059;-77
2022/10/16 03:17:45;;;;;;;3.33;1.42;;;;;;;;;;5023671;28;20411;-72
2022/10/16 03:20:15;;;;;;;4.63;1.85;;;;;;;;;;5091851;28;20055;-71
2022/10/16 03:22:44;;;;;;;5.20;1.60;;;;;;;;;;5091989;28;20050;-73
2022/10/16 03:25:15;;;;;;;2.67;1.27;;;;;;;;;;5092185;28;20403;-75
2022/10/16 03:27:44;;;;;;;4.60;1.35;;;;;;;;;;5091713;28;20055;-77
2022/10/16 03:30:15;;;;;;;3.30;1.52;;;;;;;;;;5091764;28;20052;-74
2022/10/16 03:32:45;;;;;;;2.97;1.30;;;;;;;;;;5091830;28;20044;-72
2022/10/16 03:35:15;;;;;;;3.10;1.10;;;;;;;;;;5091947;28;20044;-72
2022/10/16 03:37:44;;;;;;;2.97;1.50;;;;;;;;;;5091955;28;20051;-71
2022/10/16 03:40:15;;;;;;;4.55;1.70;;;;;;;;;;5091966;28;20044;-71
2022/10/16 03:42:45;;;;;;;3.00;1.45;;;;;;;;;;5091644;28;20094;-71
2022/10/16 03:45:14;;;;;;;5.22;1.95;;;;;;;;;;5091824;28;20043;-71
2022/10/16 03:47:45;;;;;;;2.83;1.52;;;;;;;;;;5092087;28;20040;-71
2022/10/16 03:50:15;;;;;;;4.15;1.95;;;;;;;;;;5091724;28;20043;-71
2022/10/16 03:52:45;;;;;;;5.38;1.45;;;;;;;;;;5091628;28;20399;-72
2022/10/16 03:55:15;;;;;;;2.95;1.60;;;;;;;;;;5091435;28;20055;-70
2022/10/16 03:57:44;;;;;;;3.28;1.60;;;;;;;;;;5091887;28;20052;-73
2022/10/16 04:00:14;;;;;;;3.17;1.58;;;;;;;;;;4981329;28;20431;-74
2022/10/16 04:02:44;;;;;;;3.65;1.50;;;;;;;;;;5029345;28;20061;-71
2022/10/16 04:05:19;;;;;;;2.83;1.42;;;;;;;;;;5029120;28;20402;-70
2022/10/16 04:07:50;;;;;;;3.03;1.52;;;;;;;;;;5013083;28;20088;-70
2022/10/16 04:10:19;;;;;;;3.67;1.70;;;;;;;;;;5029091;28;20069;-73
2022/10/16 04:12:51;;;;;;;3.63;1.80;;;;;;;;;;5029142;28;20054;-74
2022/10/16 04:15:21;;;;;;;4.50;1.58;;;;;;;;;;5031286;28;20064;-74
2022/10/16 04:17:52;;;;;;;4.15;1.98;;;;;;;;;;5032851;28;20041;-77
2022/10/16 04:20:22;;;;;;;3.28;1.70;;;;;;;;;;5016032;28;20058;-75
2022/10/16 04:22:52;;;;;;;4.00;1.50;;;;;;;;;;5032743;28;20056;-74
2022/10/16 04:25:22;;;;;;;3.15;1.55;;;;;;;;;;5032533;28;20169;-75
2022/10/16 04:27:56;;;;;;;3.72;1.75;;;;;;;;;;5032420;28;20053;-76
2022/10/16 04:30:26;;;;;;;4.80;1.83;;;;;;;;;;5040286;28;20050;-74
2022/10/16 04:32:56;;;;;;;3.63;1.40;;;;;;;;;;5094867;28;20059;-73
2022/10/16 04:35:26;;;;;;;2.78;1.45;;;;;;;;;;5094912;28;20498;-74
2022/10/16 04:37:58;;;;;;;3.88;1.75;;;;;;;;;;5052180;28;20481;-73
2022/10/16 04:40:29;;;;;;;3.55;2.00;;;;;;;;;;5018768;28;20179;-75
2022/10/16 04:42:59;;;;;;;2.88;1.52;;;;;;;;;;5035409;28;20056;-75
2022/10/16 04:45:30;;;;;;;2.72;1.20;;;;;;;;;;5052086;28;20374;-72
2022/10/16 04:48:00;;;;;;;4.05;1.50;;;;;;;;;;5052182;28;20049;-71
2022/10/16 04:50:31;;;;;;;4.35;1.50;;;;;;;;;;5018704;28;20500;-67
2022/10/16 04:53:07;;;;;;;4.53;1.67;;;;;;;;;;5031847;28;20057;-65
2022/10/16 04:55:37;;;;;;;6.00;1.33;;;;;;;;;;5031949;28;20382;-63
2022/10/16 04:58:08;;;;;;;2.67;1.38;;;;;;;;;;4968440;28;20485;-64
2022/10/16 05:00:38;;;;;;;3.42;1.70;;;;;;;;;;5031735;28;20046;-64
2022/10/16 05:03:08;;;;;;;2.30;1.48;;;;;;;;;;4999021;28;20062;-64
2022/10/16 05:05:46;;;;;;;3.42;1.30;;;;;;;;;;5031739;28;20057;-65
2022/10/16 05:08:17;;;;;;;3.78;1.48;;;;;;;;;;5031739;28;20068;-65
2022/10/16 05:10:47;;;;;;;2.13;0.95;;;;;;;;;;4982992;28;20054;-64
2022/10/16 05:13:17;;;;;;;2.15;1.20;;;;;;;;;;5032019;28;20076;-62
2022/10/16 05:15:48;;;;;;;2.28;1.13;;;;;;;;;;5005964;28;20060;-61
2022/10/16 05:18:18;;;;;;;2.47;1.35;;;;;;;;;;5038070;28;20052;-62
2022/10/16 05:20:48;;;;;;;3.63;1.52;;;;;;;;;;5054644;28;20067;-61
2022/10/16 05:23:18;;;;;;;1.95;0.95;;;;;;;;;;5071642;28;20055;-62
2022/10/16 05:25:57;;;;;;;5.20;1.90;;;;;;;;;;5070399;28;20044;-64
2022/10/16 05:28:30;;;;;;;2.97;1.50;;;;;;;;;;5038572;28;20530;-64
2022/10/16 05:31:07;;;;;;;2.70;1.65;;;;;;;;;;5085063;28;20055;-65
2022/10/16 05:33:37;;;;;;;5.20;2.08;;;;;;;;;;5093936;28;20056;-67
2022/10/16 05:36:10;;;;;;;3.53;1.77;;;;;;;;;;5093461;28;20044;-66
2022/10/16 05:38:40;;;;;;;4.20;1.90;;;;;;;;;;5043355;28;20071;-64
2022/10/16 05:41:10;;;;;;;3.97;1.65;;;;;;;;;;5093495;28;20043;-62
2022/10/16 05:43:40;;;;;;;6.82;1.55;;;;;;;;;;5057979;28;20052;-62
2022/10/16 05:46:09;;;;;;;2.63;1.83;;;;;;;;;;5075104;28;20060;-63
2022/10/16 05:48:39;;;;;;;2.88;1.63;;;;;;;;;;5093425;28;20044;-63
2022/10/16 05:51:15;;;;;;;3.53;2.20;;;;;;;;;;5057808;28;20056;-61
2022/10/16 05:53:45;;;;;;;2.90;1.60;;;;;;;;;;5093419;28;20055;-62
2022/10/16 05:56:15;;;;;;;2.60;1.50;;;;;;;;;;5093122;28;20487;-61
2022/10/16 05:58:45;;;;;;;3.50;1.67;;;;;;;;;;5050834;28;20057;-61
2022/10/16 06:01:18;;;;;;;2.92;1.60;;;;;;;;;;5050642;28;20581;-62
2022/10/16 06:03:50;;;;;;;4.88;2.05;;;;;;;;;;5030432;28;20053;-62
2022/10/16 06:06:22;;;;;;;1.65;1.10;;;;;;;;;;5030473;28;20045;-62
2022/10/16 06:08:54;;;;;;;3.00;1.50;;;;;;;;;;5030665;28;20548;-64
2022/10/16 06:11:30;;;;;;;2.13;1.15;;;;;;;;;;4961983;28;20057;-64
2022/10/16 06:14:02;;;;;;;2.97;1.40;;;;;;;;;;5010853;28;20164;-64
2022/10/16 06:16:35;;;;;;;4.50;1.33;;;;;;;;;;4978068;28;20054;-61
2022/10/16 06:19:07;;;;;;;3.80;1.50;;;;;;;;;;4978126;28;20081;-62
2022/10/16 06:21:37;;;;;;;;;;;;;;;;;;5011035;28;20057;-61
2022/10/16 06:24:07;;;;;;;3.42;1.20;;;;;;;;;;4961926;28;19921;-60
2022/10/16 06:26:38;;;;;;;3.15;1.80;;;;;;;;;;5010417;28;20513;-62
2022/10/16 06:29:09;;;;;;;1.50;0.98;;;;;;;;;;4930685;28;20106;-61
2022/10/16 06:31:39;;;;;;;2.13;0.93;;;;;;;;;;4977759;28;20069;-62
2022/10/16 06:34:11;;;;;;;2.95;1.27;;;;;;;;;;4977649;28;20073;-61
2022/10/16 06:36:43;;;;;;;1.95;0.70;;;;;;;;;;4983070;28;20441;-62
2022/10/16 06:39:13;;;;;;;2.08;0.98;;;;;;;;;;4990527;28;20061;-63
2022/10/16 06:41:44;;;;;;;1.20;0.68;;;;;;;;;;4958294;28;20055;-63
2022/10/16 06:44:16;;;;;;;1.75;0.75;;;;;;;;;;4975385;28;20061;-65
2022/10/16 06:46:46;;;;;;;1.30;0.50;;;;;;;;;;4958931;28;20410;-65
2022/10/16 06:49:22;;;;;;;1.88;0.80;;;;;;;;;;5002067;28;20065;-65
2022/10/16 06:51:52;;;;;;;0.93;0.65;;;;;;;;;;5010131;28;20064;-66
2022/10/16 06:54:22;;;;;;;1.17;0.73;;;;;;;;;;4993738;28;20053;-66
2022/10/16 06:56:54;;;;;;;1.52;0.75;;;;;;;;;;5009979;28;20042;-67
2022/10/16 06:59:24;;;;;;;1.88;0.80;;;;;;;;;;4951592;29;20050;-67
2022/10/16 07:01:55;;;;;;;1.50;0.90;;;;;;;;;;4951608;29;20162;-68
2022/10/16 07:04:25;;;;;;;1.27;0.57;;;;;;;;;;4951885;29;20063;-68
2022/10/16 07:06:54;;;;;;;2.08;1.00;;;;;;;;;;4951378;29;20055;-66
2022/10/16 07:09:24;;;;;;;1.35;0.80;;;;;;;;;;4951287;29;20427;-67
2022/10/16 07:11:55;;;;;;;1.65;0.75;;;;;;;;;;4951489;29;20439;-69
2022/10/16 07:14:25;;;;;;;1.20;0.80;;;;;;;;;;4961897;28;20520;-69
2022/10/16 07:16:55;;;;;;;2.15;1.20;;;;;;;;;;4954452;28;20055;-69
2022/10/16 07:19:25;;;;;;;1.38;0.80;;;;;;;;;;4970929;28;20073;-69
2022/10/16 07:21:59;;;;;;;1.90;1.00;;;;;;;;;;4970939;28;20079;-69
2022/10/16 07:24:30;;;;;;;1.50;0.80;;;;;;;;;;4970877;28;20051;-69
2022/10/16 07:27:00;;;;;;;1.20;0.80;;;;;;;;;;4970656;28;20063;-69
2022/10/16 07:29:30;;;;;;;0.90;0.63;;;;;;;;;;4938857;28;20059;-67
2022/10/16 07:32:02;;;;;;;1.38;0.63;;;;;;;;;;4970374;28;20419;-69
2022/10/16 07:34:33;;;;;;;3.25;0.93;;;;;;;;;;4938714;28;20063;-69
2022/10/16 07:37:03;;;;;;;1.60;0.77;;;;;;;;;;5000168;28;20058;-69
2022/10/16 07:39:34;;;;;;;1.67;0.90;;;;;;;;;;5013377;28;20497;-69
2022/10/16 07:42:04;;;;;;;1.55;0.80;;;;;;;;;;4980349;28;20065;-69
2022/10/16 07:44:34;;;;;;;1.48;0.85;;;;;;;;;;4980243;28;20056;-69
2022/10/16 07:47:04;;;;;;;1.85;0.82;;;;;;;;;;5053550;28;20055;-69
2022/10/16 07:49:34;;;;;;;1.15;0.95;;;;;;;;;;5013873;28;20053;-69
2022/10/16 07:52:04;;;;;;;2.35;0.80;;;;;;;;;;5033184;28;20556;-69
2022/10/16 07:54:33;;;;;;;2.20;1.40;;;;;;;;;;5013162;28;20057;-69
2022/10/16 07:57:03;;;;;;;3.70;0.95;;;;;;;;;;5013057;28;20065;-69
2022/10/16 07:59:33;;;;;;;1.95;1.10;;;;;;;;;;4981045;28;20064;-69
2022/10/16 08:02:03;;;;;;;2.22;0.90;;;;;;;;;;5013314;28;20061;-70
2022/10/16 08:04:32;;;;;;;2.80;0.90;;;;;;;;;;5013549;28;20057;-70
2022/10/16 08:07:02;;;;;;;1.38;0.98;;;;;;;;;;5013083;28;20054;-69
2022/10/16 08:09:32;;;;;;;1.52;0.95;;;;;;;;;;5013123;28;20557;-69
2022/10/16 08:12:02;;;;;;;2.88;1.30;;;;;;;;;;5013063;28;20054;-68
2022/10/16 08:14:32;;;;;;;2.10;0.90;;;;;;;;;;5012896;28;20520;-69
2022/10/16 08:17:02;;;;;;;1.30;0.90;;;;;;;;;;5012782;28;20576;-69
2022/10/16 08:19:34;;;;;;;1.25;0.60;;;;;;;;;;5012952;28;20515;-69
2022/10/16 08:22:05;;;;;;;2.55;1.15;;;;;;;;;;5012735;28;20081;-69
2022/10/16 08:24:36;;;;;;;1.98;1.55;;;;;;;;;;5012711;28;20066;-69
2022/10/16 08:27:08;;;;;;;1.55;0.80;;;;;;;;;;5004841;28;20497;-69
2022/10/16 08:29:39;;;;;;;1.92;0.95;;;;;;;;;;5000155;28;20052;-70
2022/10/16 08:32:08;;;;;;;1.45;0.80;;;;;;;;;;5051701;28;20531;-71
2022/10/16 08:34:39;;;;;;;1.42;1.00;;;;;;;;;;5072368;28;20107;-68
2022/10/16 08:37:11;;;;;;;3.65;0.93;;;;;;;;;;5052108;28;20177;-68
2022/10/16 08:39:41;;;;;;;1.25;0.80;;;;;;;;;;5035406;28;20519;-68
2022/10/16 08:42:13;;;;;;;2.40;0.80;;;;;;;;;;5012319;28;20057;-68
2022/10/16 08:44:47;;;;;;;2.25;0.80;;;;;;;;;;5012377;28;20058;-68
2022/10/16 08:47:35;;;;;;;2.70;0.80;;;;;;;;;;4963076;28;20184;-68
2022/10/16 08:50:27;;;;;;;1.70;1.05;;;;;;;;;;4980518;28;20062;-68
2022/10/16 08:52:58;;;;;;;1.50;1.00;;;;;;;;;;4963511;28;20553;-69
2022/10/16 08:55:32;;;;;;;1.48;0.90;;;;;;;;;;4979660;28;20060;-68
2022/10/16 08:58:09;;;;;;;1.05;0.65;;;;;;;;;;5012018;28;20041;-68
2022/10/16 09:00:40;;;;;;;2.83;1.02;;;;;;;;;;5029676;28;20069;-68
2022/10/16 09:03:22;;;;;;;6.53;1.55;;;;;;;;;;5015169;28;20057;-68
2022/10/16 09:06:30;;;;;;;2.65;0.90;;;;;;;;;;5031826;28;20045;-68
2022/10/16 09:09:16;;;;;;;1.48;0.95;;;;;;;;;;5031939;28;20053;-68
2022/10/16 09:11:56;;;;;;;1.23;1.13;;;;;;;;;;5031811;28;20049;-69
2022/10/16 09:14:52;;;;;;;1.40;0.80;;;;;;;;;;4990634;28;20057;-69
2022/10/16 09:17:44;;;;;;;3.50;0.70;;;;;;;;;;5051727;28;20053;-70
2022/10/16 09:20:40;;;;;;;2.35;1.73;;;;;;;;;;5080521;28;20067;-70
2022/10/16 09:23:30;;;;;;;1.45;0.80;;;;;;;;;;5076476;28;20675;-70
2022/10/16 09:26:01;;;;;;;2.28;0.80;;;;;;;;;;5058455;28;20048;-69
2022/10/16 09:28:32;;;;;;;1.60;0.80;;;;;;;;;;5058308;28;20500;-69
2022/10/16 09:31:02;;;;;;;1.52;0.50;;;;;;;;;;5093843;28;20400;-69
2022/10/16 09:33:39;;;;;;;2.00;0.70;;;;;;;;;;5093683;28;20060;-69
2022/10/16 09:36:10;;;;;;;2.03;1.33;;;;;;;;;;5093912;28;20047;-69
2022/10/16 09:38:41;;;;;;;1.67;1.00;;;;;;;;;;5058259;28;20048;-69
2022/10/16 09:41:11;;;;;;;1.98;0.60;;;;;;;;;;5093538;28;20044;-69
2022/10/16 09:43:59;;;;;;;1.40;0.70;;;;;;;;;;5057963;28;20060;-69
2022/10/16 09:46:32;;;;;;;4.68;0.73;;;;;;;;;;5074620;28;20071;-69
2022/10/16 09:49:26;;;;;;;1.10;0.70;;;;;;;;;;5058087;28;20052;-70
2022/10/16 09:52:15;;;;;;;1.95;1.25;;;;;;;;;;4991314;28;20061;-69
2022/10/16 09:54:53;;;;;;;1.73;0.70;;;;;;;;;;4991615;28;20066;-69
2022/10/16 09:57:24;;;;;;;0.93;0.50;;;;;;;;;;4959145;28;20410;-70
2022/10/16 09:59:58;;;;;;;1.70;0.77;;;;;;;;;;4958964;28;20526;-69
2022/10/16 10:02:31;;;;;;;2.33;0.80;;;;;;;;;;4991618;28;20066;-70
2022/10/16 10:05:02;;;;;;;1.35;0.70;;;;;;;;;;4991303;28;20050;-69
2022/10/16 10:07:38;;;;;;;1.70;0.73;;;;;;;;;;4959040;28;20069;-70
2022/10/16 10:10:22;;;;;;;1.08;0.40;;;;;;;;;;4991217;28;20423;-70
2022/10/16 10:12:54;;;;;;;1.85;0.90;;;;;;;;;;4958490;28;20065;-70
2022/10/16 10:15:26;;;;;;;1.35;0.85;;;;;;;;;;4991142;28;20069;-70
2022/10/16 10:17:58;;;;;;;1.77;1.33;;;;;;;;;;4958890;28;20514;-70
2022/10/16 10:20:38;;;;;;;1.30;0.77;;;;;;;;;;4959682;28;20077;-70
2022/10/16 10:23:23;;;;;;;1.45;0.93;;;;;;;;;;4917212;29;20063;-70
2022/10/16 10:25:59;;;;;;;1.63;0.57;;;;;;;;;;4932897;29;20047;-70
2022/10/16 10:29:02;;;;;;;1.33;0.55;;;;;;;;;;4955423;28;20068;-69
2022/10/16 10:31:59;;;;;;;7.75;2.15;;;;;;;;;;4986301;28;20401;-70
2022/10/16 10:35:06;;;;;;;20.15;5.93;;;;;;;;;;4933024;29;20070;-70
2022/10/16 10:37:46;;;;;;;17.05;5.22;;;;;;;;;;4932916;29;20063;-69
2022/10/16 10:40:25;;;;;;;28.05;11.57;;;;;;;;;;4932954;29;20095;-69
2022/10/16 10:43:01;;;;;;;;;;;;;;;;;;4933513;29;20047;-70
2022/10/16 10:45:45;;;;;;;5.93;3.03;;;;;;;;;;4932692;29;19923;-70
2022/10/16 10:48:34;;;;;;;3.67;1.75;;;;;;;;;;4886159;29;20067;-70
2022/10/16 10:51:12;;;;;;;1.98;0.60;;;;;;;;;;4932636;29;20078;-70
2022/10/16 10:53:47;;;;;;;1.10;0.63;;;;;;;;;;4932786;29;20055;-71
2022/10/16 10:56:20;;;;;;;1.77;1.33;;;;;;;;;;4932708;29;21400;-70
2022/10/16 10:58:59;;;;;;;1.20;0.70;;;;;;;;;;4932797;29;20059;-70
2022/10/16 11:01:29;;;;;;;;;;;;;;;;;;4935440;28;20059;-70
2022/10/16 11:04:21;;;;;;;1.90;0.90;;;;;;;;;;4971004;28;19945;-70
2022/10/16 11:07:20;;;;;;;1.13;0.40;;;;;;;;;;4951730;29;20063;-70
2022/10/16 11:10:15;;;;;;;1.00;0.77;;;;;;;;;;4951759;29;20066;-70
2022/10/16 11:12:52;;;;;;;5.65;3.10;;;;;;;;;;4994384;28;20061;-70
2022/10/16 11:15:25;;;;;;;2.60;1.80;;;;;;;;;;4966220;28;20050;-70
2022/10/16 11:18:08;;;;;;;5.15;1.95;;;;;;;;;;5029589;28;20410;-70
2022/10/16 11:20:45;;;;;;;2.50;1.77;;;;;;;;;;5029653;28;20053;-70
2022/10/16 11:23:30;;;;;;;3.63;1.10;;;;;;;;;;5040815;28;20456;-70
2022/10/16 11:26:02;;;;;;;;;;;;;;;;;;5053738;28;20057;-70
2022/10/16 11:28:42;;;;;;;1.45;0.85;;;;;;;;;;5020687;28;19920;-70
2022/10/16 11:31:24;;;;;;;6.43;2.60;;;;;;;;;;5020576;28;20059;-70
2022/10/16 11:34:24;;;;;;;2.13;1.02;;;;;;;;;;5036608;28;20492;-70
2022/10/16 11:37:00;;;;;;;1.20;0.70;;;;;;;;;;5053514;28;20082;-70
2022/10/16 11:39:31;;;;;;;3.53;1.67;;;;;;;;;;5053481;28;20044;-71
2022/10/16 11:42:27;;;;;;;5.00;2.47;;;;;;;;;;5053222;28;20120;-71
2022/10/16 11:45:24;;;;;;;3.30;1.70;;;;;;;;;;5039786;28;20059;-70
2022/10/16 11:48:12;;;;;;;1.23;0.73;;;;;;;;;;5095772;28;20404;-70
2022/10/16 11:51:17;;;;;;;2.50;0.70;;;;;;;;;;5096021;28;20040;-71
2022/10/16 11:54:02;;;;;;;1.38;0.32;;;;;;;;;;5078051;28;20346;-71
2022/10/16 11:56:38;;;;;;;1.33;0.93;;;;;;;;;;5062459;28;20055;-71
2022/10/16 11:59:44;;;;;;;3.08;0.90;;;;;;;;;;5095545;28;20051;-72
2022/10/16 12:02:35;;;;;;;1.38;0.73;;;;;;;;;;5013299;28;20053;-71
2022/10/16 12:05:34;;;;;;;1.05;0.60;;;;;;;;;;5013303;28;20081;-71
2022/10/16 12:08:12;;;;;;;0.60;0.60;;;;;;;;;;4973984;28;20526;-74
2022/10/16 12:10:45;;;;;;;2.03;0.95;;;;;;;;;;4974136;28;20055;-71
2022/10/16 12:13:32;;;;;;;10.90;4.00;;;;;;;;;;4925722;28;20156;-72
2022/10/16 12:16:22;;;;;;;1.92;0.93;;;;;;;;;;4974177;28;20051;-71
2022/10/16 12:19:10;;;;;;;1.10;0.80;;;;;;;;;;4957931;28;20058;-71
2022/10/16 12:21:41;;;;;;;2.33;0.60;;;;;;;;;;4957911;28;20059;-71
2022/10/16 12:24:37;;;;;;;1.02;0.90;;;;;;;;;;4974279;28;20526;-71
2022/10/16 12:27:31;;;;;;;0.95;0.60;;;;;;;;;;4973926;28;20058;-72
2022/10/16 12:30:08;;;;;;;1.40;0.88;;;;;;;;;;4973623;28;20047;-74
2022/10/16 12:32:40;;;;;;;1.05;0.90;;;;;;;;;;4941477;28;20055;-72
2022/10/16 12:35:21;;;;;;;1.30;0.60;;;;;;;;;;4953615;28;20051;-70
2022/10/16 12:37:53;;;;;;;0.75;0.50;;;;;;;;;;4940675;28;20059;-70
2022/10/16 12:40:30;;;;;;;1.17;0.63;;;;;;;;;;5012490;28;20767;-70
2022/10/16 12:43:20;;;;;;;1.17;0.60;;;;;;;;;;5012786;28;20114;-71
2022/10/16 12:46:03;;;;;;;0.77;0.60;;;;;;;;;;5011947;28;20060;-72
2022/10/16 12:48:34;;;;;;;1.45;1.35;;;;;;;;;;5035207;28;20493;-71
2022/10/16 12:51:30;;;;;;;1.75;0.60;;;;;;;;;;5052137;28;20180;-71
2022/10/16 12:54:13;;;;;;;2.75;0.98;;;;;;;;;;5052091;28;20160;-72
2022/10/16 12:57:14;;;;;;;1.27;0.60;;;;;;;;;;5035119;28;20060;-72
2022/10/16 12:59:55;;;;;;;5.55;0.55;;;;;;;;;;5051821;28;20432;-71
2022/10/16 13:02:47;;;;;;;1.35;1.00;;;;;;;;;;5051883;28;20053;-71
2022/10/16 13:05:25;;;;;;;1.20;0.80;;;;;;;;;;5051616;28;20112;-71
2022/10/16 13:08:28;;;;;;;1.55;0.82;;;;;;;;;;5002603;28;20061;-69
2022/10/16 13:11:14;;;;;;;0.65;0.60;;;;;;;;;;4995386;28;20122;-71
2022/10/16 13:14:10;;;;;;;2.45;1.38;;;;;;;;;;5031773;28;20531;-72
2022/10/16 13:17:32;;;;;;;1.23;0.77;;;;;;;;;;5051654;28;20048;-72
2022/10/16 13:20:18;;;;;;;;;;;;;;;;;;4957032;28;20065;-70
2022/10/16 13:23:24;;;;;;;0.70;0.70;;;;;;;;;;4956677;28;19929;-72
2022/10/16 13:26:09;;;;;;;0.70;0.70;;;;;;;;;;4915330;29;20059;-73
2022/10/16 13:28:41;;;;;;;6.38;0.75;;;;;;;;;;4929665;29;20074;-74
2022/10/16 13:31:18;;;;;;;1.15;1.05;;;;;;;;;;4915405;29;20048;-74
2022/10/16 13:33:55;;;;;;;1.65;0.77;;;;;;;;;;4914844;29;20516;-72
2022/10/16 13:36:34;;;;;;;0.63;0.50;;;;;;;;;;4914935;29;20056;-71
2022/10/16 13:39:17;;;;;;;0.63;0.60;;;;;;;;;;4883651;29;20067;-72
2022/10/16 13:42:07;;;;;;;0.82;0.60;;;;;;;;;;4914981;29;20075;-71
2022/10/16 13:44:46;;;;;;;0.88;0.52;;;;;;;;;;4915236;29;20155;-75
2022/10/16 13:47:18;;;;;;;0.93;0.57;;;;;;;;;;4914184;29;20507;-74
2022/10/16 13:50:01;;;;;;;0.75;0.68;;;;;;;;;;4937303;29;20059;-73
2022/10/16 13:52:31;;;;;;;2.75;1.25;;;;;;;;;;4953020;29;20047;-75
2022/10/16 13:55:02;;;;;;;1.80;0.50;;;;;;;;;;4932363;28;20054;-73
2022/10/16 13:57:32;;;;;;;3.97;1.92;;;;;;;;;;4991163;28;20050;-72
2022/10/16 14:00:03;;;;;;;1.30;0.90;;;;;;;;;;4958973;28;20537;-75
2022/10/16 14:02:39;;;;;;;1.17;0.85;;;;;;;;;;4997097;28;20508;-74
2022/10/16 14:05:13;;;;;;;1.83;1.15;;;;;;;;;;4970155;28;20045;-74
2022/10/16 14:07:43;;;;;;;0.80;0.70;;;;;;;;;;5017243;28;20041;-74
2022/10/16 14:10:25;;;;;;;3.30;1.45;;;;;;;;;;5017384;28;20053;-73
2022/10/16 14:13:01;;;;;;;0.93;0.47;;;;;;;;;;5050644;28;20366;-77
2022/10/16 14:15:34;;;;;;;1.63;0.80;;;;;;;;;;5017109;28;20057;-71
2022/10/16 14:18:05;;;;;;;0.90;0.80;;;;;;;;;;4969407;28;20636;-76
2022/10/16 14:20:35;;;;;;;0.40;0.20;;;;;;;;;;5018035;28;20425;-75
2022/10/16 14:23:33;;;;;;;1.05;0.85;;;;;;;;;;5050193;28;20057;-75
2022/10/16 14:26:23;;;;;;;1.92;1.08;;;;;;;;;;4952167;29;20178;-72
2022/10/16 14:29:12;;;;;;;2.85;1.65;;;;;;;;;;4952312;29;20063;-71
2022/10/16 14:31:42;;;;;;;2.85;2.15;;;;;;;;;;4951993;29;20051;-74
2022/10/16 14:34:54;;;;;;;2.55;1.33;;;;;;;;;;4952145;29;20055;-74
2022/10/16 14:37:26;;;;;;;1.23;1.00;;;;;;;;;;4952119;29;20063;-75
2022/10/16 14:39:59;;;;;;;0.68;0.40;;;;;;;;;;4904763;29;20483;-74
2022/10/16 14:42:31;;;;;;;0.93;0.30;;;;;;;;;;4952111;29;20417;-73
2022/10/16 14:45:00;;;;;;;2.00;1.20;;;;;;;;;;4951972;29;20522;-75
2022/10/16 14:47:31;;;;;;;1.08;0.85;;;;;;;;;;4952024;28;20047;-71
2022/10/16 14:50:01;;;;;;;2.00;1.20;;;;;;;;;;4932523;29;20051;-75
2022/10/16 14:52:31;;;;;;;1.60;1.00;;;;;;;;;;4901668;29;20067;-74
2022/10/16 14:55:02;;;;;;;1.83;0.90;;;;;;;;;;4932636;29;20055;-72
2022/10/16 14:57:36;;;;;;;1.00;0.70;;;;;;;;;;4885743;29;20058;-72
2022/10/16 15:00:21;;;;;;;0.63;0.57;;;;;;;;;;4932517;29;20063;-72
2022/10/16 15:02:52;;;;;;;2.38;0.88;;;;;;;;;;4947419;28;20057;-73
2022/10/16 15:05:24;;;;;;;0.95;0.70;;;;;;;;;;4954871;28;20526;-72
2022/10/16 15:07:55;;;;;;;2.80;1.20;;;;;;;;;;4969560;28;20065;-72
2022/10/16 15:10:27;;;;;;;1.10;0.80;;;;;;;;;;4998053;28;20064;-73
2022/10/16 15:12:58;;;;;;;0.68;0.60;;;;;;;;;;5049603;28;20060;-72
2022/10/16 15:15:35;;;;;;;1.55;1.20;;;;;;;;;;5049602;28;20061;-73
2022/10/16 15:18:06;;;;;;;1.00;0.80;;;;;;;;;;5049481;28;20060;-73
2022/10/16 15:20:38;;;;;;;1.23;0.63;;;;;;;;;;5049450;28;20056;-73
2022/10/16 15:23:20;;;;;;;1.90;1.10;;;;;;;;;;5032681;28;20052;-71
2022/10/16 15:25:55;;;;;;;2.05;0.98;;;;;;;;;;5049768;28;20056;-72
2022/10/16 15:28:26;;;;;;;2.10;1.05;;;;;;;;;;5057475;28;20048;-71
2022/10/16 15:30:57;;;;;;;0.70;0.28;;;;;;;;;;5112408;28;20403;-71
2022/10/16 15:33:32;;;;;;;0.73;0.70;;;;;;;;;;5112388;28;20051;-72
2022/10/16 15:36:08;;;;;;;0.55;0.30;;;;;;;;;;5056821;28;20396;-71
2022/10/16 15:38:38;;;;;;;2.03;0.70;;;;;;;;;;5058494;28;20483;-71